createdAt,value
2017-05-02T00:01:20.782Z,88.01
2017-05-02T00:03:48.349Z,87.30
2017-05-02T00:06:15.867Z,87.91
2017-05-02T00:08:43.421Z,88.58
2017-05-02T00:11:10.940Z,88.11
2017-05-02T00:13:38.596Z,86.91
2017-05-02T00:16:06.124Z,87.26
2017-05-02T00:18:33.645Z,87.10
2017-05-02T00:21:01.208Z,87.54
2017-05-02T00:23:28.725Z,88.25
2017-05-02T00:25:56.319Z,88.03
2017-05-02T00:28:23.906Z,87.89
2017-05-02T00:30:51.788Z,88.29
2017-05-02T00:33:19.312Z,86.54
2017-05-02T00:35:46.838Z,86.98
2017-05-02T00:38:14.386Z,86.71
2017-05-02T00:40:41.904Z,86.87
2017-05-02T00:43:09.630Z,86.49
2017-05-02T00:45:37.148Z,86.09
2017-05-02T00:48:04.657Z,86.12
2017-05-02T00:50:32.215Z,86.82
2017-05-02T00:52:59.728Z,86.94
2017-05-02T00:55:27.587Z,88.13
2017-05-02T00:57:55.103Z,87.34
2017-05-02T01:00:22.615Z,87.35
2017-05-02T01:02:50.189Z,88.46
2017-05-02T01:05:17.703Z,87.10
2017-05-02T01:07:45.734Z,88.05
2017-05-02T01:10:13.303Z,87.73
2017-05-02T01:12:40.901Z,88.46
2017-05-02T01:15:08.458Z,88.34
2017-05-02T01:17:35.984Z,88.11
2017-05-02T01:20:03.648Z,87.53
2017-05-02T01:22:31.192Z,87.48
2017-05-02T01:24:58.717Z,86.50
2017-05-02T01:27:26.300Z,86.61
2017-05-02T01:29:53.833Z,87.94
2017-05-02T01:32:21.500Z,87.85
2017-05-02T01:34:49.060Z,87.38
2017-05-02T01:37:16.575Z,87.83
2017-05-02T01:39:44.111Z,88.43
2017-05-02T01:42:11.649Z,87.18
2017-05-02T01:44:39.203Z,87.34
2017-05-02T01:47:06.715Z,87.07
2017-05-02T01:49:34.384Z,86.95
2017-05-02T01:52:01.923Z,86.61
2017-05-02T01:54:29.436Z,87.09
2017-05-02T01:56:56.992Z,87.63
2017-05-02T01:59:24.498Z,86.28
2017-05-02T02:01:52.159Z,86.45
2017-05-02T02:04:19.668Z,86.05
2017-05-02T02:06:47.179Z,86.66
2017-05-02T02:09:14.760Z,86.08
2017-05-02T02:11:42.295Z,86.20
2017-05-02T02:14:09.967Z,87.19
2017-05-02T02:16:37.473Z,86.98
2017-05-02T02:19:04.990Z,88.09
2017-05-02T02:21:32.531Z,88.08
2017-05-02T02:24:00.049Z,87.96
2017-05-02T02:26:27.595Z,87.53
2017-05-02T02:28:55.103Z,87.38
2017-05-02T02:31:22.790Z,87.15
2017-05-02T02:33:50.315Z,87.10
2017-05-02T02:36:17.883Z,86.74
2017-05-02T02:38:45.465Z,88.19
2017-05-02T02:41:13.021Z,87.37
2017-05-02T02:43:40.612Z,87.33
2017-05-02T02:46:08.229Z,87.43
2017-05-02T02:48:35.791Z,86.50
2017-05-02T02:51:03.311Z,87.61
2017-05-02T02:53:30.959Z,86.48
2017-05-02T02:55:58.479Z,86.67
2017-05-02T02:58:26.151Z,87.35
2017-05-02T03:00:53.695Z,88.01
2017-05-02T03:03:21.209Z,87.45
2017-05-02T03:05:48.884Z,87.54
2017-05-02T03:08:16.527Z,87.17
2017-05-02T03:10:44.088Z,87.08
2017-05-02T03:13:11.667Z,87.21
2017-05-02T03:15:39.231Z,87.56
2017-05-02T03:18:06.898Z,86.80
2017-05-02T03:20:34.456Z,87.14
2017-05-02T03:23:02.336Z,86.89
2017-05-02T03:25:29.854Z,87.07
2017-05-02T03:27:57.375Z,86.43
2017-05-02T03:30:25.423Z,86.92
2017-05-02T03:32:52.965Z,86.49
2017-05-02T03:35:20.477Z,86.88
2017-05-02T03:37:48.033Z,86.79
2017-05-02T03:40:15.555Z,86.83
2017-05-02T03:42:43.522Z,86.64
2017-05-02T03:45:11.032Z,87.19
2017-05-02T03:47:38.563Z,87.93
2017-05-02T03:50:06.151Z,86.13
2017-05-02T03:52:33.706Z,84.69
2017-05-02T03:55:01.729Z,85.14
2017-05-02T03:57:29.268Z,86.11
2017-05-02T03:59:56.821Z,86.80
2017-05-02T04:02:24.371Z,86.75
2017-05-02T04:04:51.890Z,86.96
2017-05-02T04:07:19.441Z,87.23
2017-05-02T04:09:46.947Z,87.17
2017-05-02T04:12:14.655Z,87.06
2017-05-02T04:14:42.251Z,87.46
2017-05-02T04:17:09.898Z,87.10
2017-05-02T04:19:37.543Z,86.87
2017-05-02T04:22:05.142Z,86.88
2017-05-02T04:24:32.807Z,86.25
2017-05-02T04:27:00.331Z,86.68
2017-05-02T04:29:27.849Z,86.64
2017-05-02T04:31:55.436Z,87.16
2017-05-02T04:34:22.952Z,87.26
2017-05-02T04:36:50.530Z,87.77
2017-05-02T04:39:18.059Z,87.78
2017-05-02T04:41:45.878Z,87.82
2017-05-02T04:44:13.396Z,87.66
2017-05-02T04:46:40.916Z,87.09
2017-05-02T04:49:08.488Z,87.20
2017-05-02T04:51:36.012Z,86.99
2017-05-02T04:54:03.771Z,87.01
2017-05-02T04:56:31.350Z,86.96
2017-05-02T04:58:58.973Z,86.79
2017-05-02T05:01:26.659Z,86.74
2017-05-02T05:03:54.196Z,86.61
2017-05-02T05:06:21.753Z,86.53
2017-05-02T05:08:49.272Z,85.87
2017-05-02T05:11:16.911Z,86.04
2017-05-02T05:13:44.445Z,86.39
2017-05-02T05:16:12.111Z,87.02
2017-05-02T05:18:39.767Z,87.32
2017-05-02T05:21:07.306Z,87.31
2017-05-02T05:23:35.044Z,86.60
2017-05-02T05:26:02.572Z,86.25
2017-05-02T05:28:30.117Z,86.26
2017-05-02T05:30:57.676Z,86.73
2017-05-02T05:33:25.237Z,86.25
2017-05-02T05:35:52.924Z,86.37
2017-05-02T05:38:20.455Z,87.41
2017-05-02T05:40:48.029Z,86.97
2017-05-02T05:43:15.591Z,86.24
2017-05-02T05:45:43.131Z,85.65
2017-05-02T05:48:10.692Z,85.34
2017-05-02T05:50:38.222Z,86.39
2017-05-02T05:53:05.971Z,86.38
2017-05-02T05:55:33.491Z,87.19
2017-05-02T05:58:01.008Z,86.44
2017-05-02T06:00:28.574Z,85.42
2017-05-02T06:02:56.070Z,85.84
2017-05-02T06:05:23.618Z,86.48
2017-05-02T06:07:51.153Z,86.33
2017-05-02T06:10:18.808Z,87.33
2017-05-02T06:12:46.329Z,87.31
2017-05-02T06:15:13.845Z,87.00
2017-05-02T06:17:41.405Z,87.64
2017-05-02T06:20:08.932Z,87.05
2017-05-02T06:22:36.492Z,87.36
2017-05-02T06:25:04.015Z,87.88
2017-05-02T06:27:31.699Z,88.05
2017-05-02T06:29:59.220Z,87.92
2017-05-02T06:32:26.776Z,87.51
2017-05-02T06:34:54.361Z,86.14
2017-05-02T06:37:21.887Z,87.01
2017-05-02T06:39:49.455Z,88.19
2017-05-02T06:42:16.973Z,87.07
2017-05-02T06:44:44.651Z,86.50
2017-05-02T06:47:12.167Z,86.13
2017-05-02T06:49:39.731Z,85.84
2017-05-02T06:52:07.293Z,86.42
2017-05-02T06:54:34.812Z,86.23
2017-05-02T06:57:02.484Z,86.09
2017-05-02T06:59:30.040Z,86.36
2017-05-02T07:01:57.567Z,86.27
2017-05-02T07:04:25.196Z,86.14
2017-05-02T07:06:52.744Z,86.02
2017-05-02T07:09:20.723Z,86.95
2017-05-02T07:11:48.295Z,87.99
2017-05-02T07:14:15.819Z,87.04
2017-05-02T07:16:43.491Z,87.45
2017-05-02T07:19:11.015Z,88.25
2017-05-02T07:21:38.506Z,88.50
2017-05-02T07:24:06.083Z,88.81
2017-05-02T07:26:33.625Z,89.34
2017-05-02T07:29:01.364Z,89.45
2017-05-02T07:31:28.895Z,87.78
2017-05-02T07:33:56.441Z,87.26
2017-05-02T07:36:24.015Z,87.85
2017-05-02T07:38:51.543Z,87.38
2017-05-02T07:41:19.489Z,87.86
2017-05-02T07:43:47.021Z,87.42
2017-05-02T07:46:14.539Z,87.42
2017-05-02T07:48:42.100Z,87.30
2017-05-02T07:51:09.632Z,87.56
2017-05-02T07:53:37.216Z,86.95
2017-05-02T07:56:04.747Z,87.33
2017-05-02T07:58:32.422Z,86.93
2017-05-02T08:00:59.963Z,88.39
2017-05-02T08:03:28.265Z,87.46
2017-05-02T08:05:55.833Z,87.93
2017-05-02T08:08:23.362Z,86.69
2017-05-02T08:10:50.935Z,87.02
2017-05-02T08:13:18.548Z,88.28
2017-05-02T08:15:46.328Z,88.73
2017-05-02T08:18:13.844Z,88.32
2017-05-02T08:20:41.362Z,87.98
2017-05-02T08:23:08.965Z,88.16
2017-05-02T08:25:36.507Z,88.21
2017-05-02T08:28:04.061Z,88.57
2017-05-02T08:30:31.588Z,87.55
2017-05-02T08:32:59.297Z,88.11
2017-05-02T08:35:26.861Z,88.48
2017-05-02T08:37:54.448Z,88.37
2017-05-02T08:40:22.044Z,88.49
2017-05-02T08:42:49.572Z,87.62
2017-05-02T08:45:17.298Z,88.47
2017-05-02T08:47:44.847Z,88.23
2017-05-02T08:50:12.413Z,87.45
2017-05-02T08:52:40.081Z,88.78
2017-05-02T08:55:07.600Z,87.91
2017-05-02T08:57:35.556Z,88.87
2017-05-02T09:00:03.155Z,88.29
2017-05-02T09:02:30.721Z,88.53
2017-05-02T09:04:58.340Z,89.58
2017-05-02T09:07:25.883Z,89.14
2017-05-02T09:09:53.457Z,88.45
2017-05-02T09:12:21.003Z,88.78
2017-05-02T09:14:48.677Z,89.29
2017-05-02T09:17:16.225Z,88.97
2017-05-02T09:19:43.757Z,89.29
2017-05-02T09:22:11.327Z,88.36
2017-05-02T09:24:38.848Z,88.42
2017-05-02T09:27:06.421Z,89.09
2017-05-02T09:29:33.967Z,88.38
2017-05-02T09:32:01.681Z,87.99
2017-05-02T09:34:29.196Z,87.11
2017-05-02T09:36:56.719Z,87.33
2017-05-02T09:39:24.317Z,87.16
2017-05-02T09:41:51.868Z,87.72
2017-05-02T09:44:19.597Z,87.46
2017-05-02T09:46:47.139Z,87.42
2017-05-02T09:49:14.662Z,86.52
2017-05-02T09:51:42.245Z,86.56
2017-05-02T09:54:09.815Z,86.83
2017-05-02T09:56:37.523Z,86.57
2017-05-02T09:59:05.050Z,87.01
2017-05-02T10:01:32.571Z,86.41
2017-05-02T10:04:00.132Z,86.98
2017-05-02T10:06:27.663Z,87.28
2017-05-02T10:08:55.391Z,87.33
2017-05-02T10:11:22.930Z,86.11
2017-05-02T10:13:50.452Z,86.77
2017-05-02T10:16:18.027Z,87.54
2017-05-02T10:18:45.560Z,87.03
2017-05-02T10:21:13.133Z,86.58
2017-05-02T10:23:40.651Z,85.23
2017-05-02T10:26:08.576Z,87.30
2017-05-02T10:28:36.114Z,84.29
2017-05-02T10:31:03.662Z,83.04
2017-05-02T10:33:31.230Z,83.79
2017-05-02T10:35:58.763Z,83.49
2017-05-02T10:38:26.520Z,82.95
2017-05-02T10:40:54.063Z,82.20
2017-05-02T10:43:21.604Z,81.64
2017-05-02T10:45:49.181Z,82.58
2017-05-02T10:48:16.712Z,81.90
2017-05-02T10:50:44.240Z,80.89
2017-05-02T10:53:11.783Z,83.19
2017-05-02T10:55:39.324Z,81.67
2017-05-02T10:58:06.899Z,82.36
2017-05-02T11:00:34.423Z,82.10
2017-05-02T11:03:02.098Z,82.90
2017-05-02T11:05:29.711Z,83.74
2017-05-02T11:07:57.240Z,84.86
2017-05-02T11:10:24.807Z,82.15
2017-05-02T11:12:52.357Z,83.06
2017-05-02T11:15:19.942Z,84.07
2017-05-02T11:17:47.480Z,84.06
2017-05-02T11:20:15.058Z,81.75
2017-05-02T11:22:42.627Z,81.86
2017-05-02T11:25:10.287Z,83.06
2017-05-02T11:27:37.872Z,81.03
2017-05-02T11:30:05.401Z,80.92
2017-05-02T11:32:33.094Z,78.52
2017-05-02T11:35:00.633Z,78.26
2017-05-02T11:37:28.169Z,77.43
2017-05-02T11:39:55.795Z,74.96
2017-05-02T11:42:23.351Z,76.22
2017-05-02T11:44:51.073Z,77.70
2017-05-02T11:47:18.625Z,76.56
2017-05-02T11:49:46.160Z,76.46
2017-05-02T11:52:13.793Z,76.89
2017-05-02T11:54:41.327Z,76.69
2017-05-02T11:57:08.921Z,76.71
2017-05-02T11:59:36.450Z,77.34
2017-05-02T12:02:04.179Z,75.41
2017-05-02T12:04:31.731Z,74.75
2017-05-02T12:06:59.271Z,74.23
2017-05-02T12:09:26.877Z,75.06
2017-05-02T12:11:54.395Z,75.19
2017-05-02T12:14:22.127Z,77.98
2017-05-02T12:16:49.663Z,78.25
2017-05-02T12:19:17.200Z,77.90
2017-05-02T12:21:44.786Z,76.59
2017-05-02T12:24:12.338Z,77.52
2017-05-02T12:26:40.033Z,76.48
2017-05-02T12:29:07.570Z,75.32
2017-05-02T12:31:35.105Z,75.31
2017-05-02T12:34:02.662Z,76.71
2017-05-02T12:36:30.201Z,75.43
2017-05-02T12:38:57.988Z,75.68
2017-05-02T12:41:25.534Z,74.61
2017-05-02T12:43:53.062Z,75.83
2017-05-02T12:46:21.647Z,73.97
2017-05-02T12:48:49.217Z,74.04
2017-05-02T12:51:16.852Z,73.67
2017-05-02T12:53:44.393Z,73.77
2017-05-02T12:56:12.072Z,71.16
2017-05-02T12:58:39.647Z,69.23
2017-05-02T13:01:07.179Z,69.50
2017-05-02T13:03:34.779Z,68.98
2017-05-02T13:06:02.352Z,70.28
2017-05-02T13:08:29.937Z,69.18
2017-05-02T13:10:57.495Z,70.24
2017-05-02T13:13:25.451Z,69.27
2017-05-02T13:15:53.001Z,69.76
2017-05-02T13:18:20.560Z,69.90
2017-05-02T13:20:48.184Z,70.23
2017-05-02T13:23:15.714Z,70.16
2017-05-02T13:25:43.548Z,71.35
2017-05-02T13:28:11.090Z,71.78
2017-05-02T13:30:38.664Z,71.88
2017-05-02T13:33:06.249Z,72.55
2017-05-02T13:35:33.822Z,73.81
2017-05-02T13:38:01.484Z,74.20
2017-05-02T13:40:29.047Z,73.89
2017-05-02T13:42:56.736Z,73.93
2017-05-02T13:45:24.267Z,73.71
2017-05-02T13:47:51.812Z,74.24
2017-05-02T13:50:19.345Z,75.49
2017-05-02T13:52:47.321Z,75.05
2017-05-02T13:55:14.876Z,74.42
2017-05-02T13:57:42.403Z,75.18
2017-05-02T14:00:10.232Z,75.87
2017-05-02T14:02:37.783Z,75.35
2017-05-02T14:05:05.341Z,75.97
2017-05-02T14:07:33.292Z,76.45
2017-05-02T14:10:00.847Z,76.21
2017-05-02T14:12:28.379Z,76.18
2017-05-02T14:14:56.252Z,76.37
2017-05-02T14:17:23.802Z,76.13
2017-05-02T14:19:51.339Z,76.91
2017-05-02T14:22:19.255Z,77.58
2017-05-02T14:24:46.816Z,77.06
2017-05-02T14:27:14.385Z,77.68
2017-05-02T14:29:41.980Z,77.60
2017-05-02T14:32:09.677Z,78.05
2017-05-02T14:34:37.211Z,77.41
2017-05-02T14:37:04.749Z,78.16
2017-05-02T14:39:32.340Z,77.77
2017-05-02T14:41:59.941Z,77.99
2017-05-02T14:44:27.591Z,79.24
2017-05-02T14:46:55.147Z,80.15
2017-05-02T14:49:23.069Z,79.53
2017-05-02T14:51:50.676Z,79.49
2017-05-02T14:54:18.209Z,79.90
2017-05-02T14:56:46.086Z,79.73
2017-05-02T14:59:13.637Z,79.80
2017-05-02T15:01:41.170Z,80.08
2017-05-02T15:04:08.747Z,81.39
2017-05-02T15:06:36.274Z,80.26
2017-05-02T15:09:14.635Z,80.27
2017-05-02T15:11:45.165Z,79.60
2017-05-02T15:14:12.753Z,79.01
2017-05-02T15:16:40.480Z,80.67
2017-05-02T15:19:08.071Z,79.90
2017-05-02T15:21:35.942Z,79.37
2017-05-02T15:24:03.552Z,78.94
2017-05-02T15:26:31.097Z,78.67
2017-05-02T15:28:58.683Z,79.06
2017-05-02T15:31:26.247Z,76.53
2017-05-02T15:33:53.839Z,73.56
2017-05-02T15:36:21.374Z,73.59
2017-05-02T15:38:49.000Z,72.79
2017-05-02T15:41:16.583Z,74.16
2017-05-02T15:43:44.188Z,73.62
2017-05-02T15:46:11.792Z,74.38
2017-05-02T15:48:39.390Z,74.35
2017-05-02T15:51:07.354Z,73.23
2017-05-02T15:53:34.961Z,74.50
2017-05-02T15:56:02.508Z,74.60
2017-05-02T15:58:30.059Z,74.75
2017-05-02T16:00:57.584Z,74.59
2017-05-02T16:03:25.440Z,73.01
2017-05-02T16:05:52.991Z,73.12
2017-05-02T16:08:20.539Z,73.68
2017-05-02T16:10:48.450Z,73.13
2017-05-02T16:13:15.983Z,72.60
2017-05-02T16:15:43.552Z,72.49
2017-05-02T16:18:11.159Z,71.25
2017-05-02T16:20:38.707Z,72.15
2017-05-02T16:23:06.276Z,73.46
2017-05-02T16:25:33.816Z,70.54
2017-05-02T16:28:01.716Z,71.71
2017-05-02T16:30:29.363Z,71.36
2017-05-02T16:32:56.896Z,72.62
2017-05-02T16:35:24.543Z,71.44
2017-05-02T16:37:52.083Z,69.76
2017-05-02T16:40:20.042Z,70.98
2017-05-02T16:42:47.552Z,71.85
2017-05-02T16:45:15.103Z,70.69
2017-05-02T16:47:42.674Z,71.90
2017-05-02T16:50:10.306Z,71.58
2017-05-02T16:52:37.869Z,72.48
2017-05-02T16:55:05.391Z,72.80
2017-05-02T16:57:32.911Z,71.31
2017-05-02T17:00:00.518Z,70.55
2017-05-02T17:02:28.045Z,70.60
2017-05-02T17:04:55.628Z,71.38
2017-05-02T17:07:23.207Z,72.13
2017-05-02T17:09:50.848Z,72.46
2017-05-02T17:12:18.432Z,71.31
2017-05-02T17:14:45.968Z,71.70
2017-05-02T17:17:13.616Z,71.79
2017-05-02T17:19:41.212Z,70.06
2017-05-02T17:22:08.811Z,69.36
2017-05-02T17:24:36.383Z,69.81
2017-05-02T17:27:03.907Z,69.45
2017-05-02T17:29:31.427Z,69.67
2017-05-02T17:31:58.999Z,69.11
2017-05-02T17:34:26.536Z,69.20
2017-05-02T17:36:54.177Z,69.26
2017-05-02T17:39:21.706Z,70.78
2017-05-02T17:41:49.411Z,71.04
2017-05-02T17:44:16.976Z,70.33
2017-05-02T17:46:44.642Z,68.72
2017-05-02T17:49:12.280Z,69.14
2017-05-02T17:51:39.836Z,70.87
2017-05-02T17:54:07.731Z,69.22
2017-05-02T17:56:35.255Z,69.37
2017-05-02T17:59:02.776Z,69.23
2017-05-02T18:01:30.357Z,68.35
2017-05-02T18:03:57.907Z,69.06
2017-05-02T18:06:25.619Z,70.21
2017-05-02T18:08:53.183Z,71.13
2017-05-02T18:11:20.708Z,72.95
2017-05-02T18:13:48.263Z,72.63
2017-05-02T18:16:15.775Z,73.23
2017-05-02T18:18:43.479Z,73.88
2017-05-02T18:21:11.011Z,73.83
2017-05-02T18:23:38.541Z,74.99
2017-05-02T18:26:06.172Z,75.89
2017-05-02T18:28:33.712Z,75.17
2017-05-02T18:31:01.252Z,76.48
2017-05-02T18:33:28.897Z,76.95
2017-05-02T18:35:56.475Z,77.39
2017-05-02T18:38:24.508Z,78.23
2017-05-02T18:40:52.033Z,79.72
2017-05-02T18:43:19.564Z,77.45
2017-05-02T18:45:47.134Z,77.53
2017-05-02T18:48:14.658Z,77.94
2017-05-02T18:50:42.395Z,78.01
2017-05-02T18:53:09.907Z,78.58
2017-05-02T18:55:37.440Z,79.42
2017-05-02T18:58:05.034Z,79.88
2017-05-02T19:00:32.544Z,81.33
2017-05-02T19:03:00.100Z,81.02
2017-05-02T19:05:27.683Z,81.27
2017-05-02T19:07:55.918Z,80.65
2017-05-02T19:10:23.510Z,80.73
2017-05-02T19:12:51.048Z,81.00
2017-05-02T19:15:18.631Z,81.32
2017-05-02T19:17:46.170Z,80.65
2017-05-02T19:20:14.133Z,80.70
2017-05-02T19:22:41.760Z,81.01
2017-05-02T19:25:09.272Z,81.78
2017-05-02T19:27:37.205Z,81.63
2017-05-02T19:30:04.724Z,81.40
2017-05-02T19:32:32.251Z,82.60
2017-05-02T19:34:59.796Z,79.11
2017-05-02T19:37:27.357Z,79.34
2017-05-02T19:39:55.202Z,80.26
2017-05-02T19:42:22.735Z,83.40
2017-05-02T19:44:50.272Z,82.42
2017-05-02T19:47:17.823Z,83.27
2017-05-02T19:49:45.356Z,82.86
2017-05-02T19:52:12.904Z,83.06
2017-05-02T19:54:40.440Z,82.97
2017-05-02T19:57:08.353Z,83.06
2017-05-02T19:59:35.896Z,84.06
2017-05-02T20:02:03.427Z,85.25
2017-05-02T20:04:30.983Z,85.14
2017-05-02T20:06:58.537Z,84.74
2017-05-02T20:09:26.154Z,84.55
2017-05-02T20:11:53.690Z,85.83
2017-05-02T20:14:21.507Z,85.87
2017-05-02T20:16:49.029Z,84.91
2017-05-02T20:19:16.570Z,86.07
2017-05-02T20:21:44.144Z,85.17
2017-05-02T20:24:12.442Z,85.29
2017-05-02T20:26:40.145Z,84.51
2017-05-02T20:29:07.686Z,85.86
2017-05-02T20:31:35.277Z,85.12
2017-05-02T20:34:02.845Z,84.72
2017-05-02T20:36:30.406Z,84.09
2017-05-02T20:38:58.007Z,85.23
2017-05-02T20:41:25.538Z,85.35
2017-05-02T20:43:53.234Z,84.65
2017-05-02T20:46:20.847Z,86.39
2017-05-02T20:48:48.360Z,86.22
2017-05-02T20:51:15.932Z,86.31
2017-05-02T20:53:43.483Z,86.19
2017-05-02T20:56:11.124Z,87.24
2017-05-02T20:58:38.702Z,86.30
2017-05-02T21:01:06.713Z,86.54
2017-05-02T21:03:34.269Z,85.87
2017-05-02T21:06:01.801Z,85.90
2017-05-02T21:08:29.394Z,86.52
2017-05-02T21:10:56.914Z,86.26
2017-05-02T21:13:24.589Z,87.63
2017-05-02T21:15:52.148Z,86.90
2017-05-02T21:18:19.670Z,87.89
2017-05-02T21:20:47.239Z,87.04
2017-05-02T21:23:14.788Z,87.49
2017-05-02T21:25:42.377Z,87.75
2017-05-02T21:28:09.891Z,88.62
2017-05-02T21:30:37.589Z,88.75
2017-05-02T21:33:05.113Z,87.44
2017-05-02T21:35:32.656Z,88.62
2017-05-02T21:38:00.215Z,87.50
2017-05-02T21:40:27.739Z,87.04
2017-05-02T21:42:55.684Z,87.74
2017-05-02T21:45:23.200Z,87.61
2017-05-02T21:47:50.732Z,87.44
2017-05-02T21:50:18.606Z,89.13
2017-05-02T21:52:46.129Z,88.48
2017-05-02T21:55:13.651Z,88.23
2017-05-02T21:57:41.226Z,88.16
2017-05-02T22:00:08.743Z,88.03
2017-05-02T22:02:36.684Z,88.85
2017-05-02T22:05:04.206Z,88.37
2017-05-02T22:07:32.343Z,87.96
2017-05-02T22:10:00.278Z,88.39
2017-05-02T22:12:28.704Z,87.44
2017-05-02T22:14:56.872Z,88.05
2017-05-02T22:17:25.420Z,88.03
2017-05-02T22:19:52.927Z,88.85
2017-05-02T22:22:20.512Z,88.05
2017-05-02T22:24:48.047Z,88.38
2017-05-02T22:27:15.732Z,88.12
2017-05-02T22:29:43.269Z,88.41
2017-05-02T22:32:10.899Z,88.52
2017-05-02T22:34:38.473Z,88.70
2017-05-02T22:37:06.012Z,87.57
2017-05-02T22:39:33.595Z,87.55
2017-05-02T22:42:01.174Z,87.64
2017-05-02T22:44:28.912Z,88.09
2017-05-02T22:46:56.448Z,88.21
2017-05-02T22:49:24.044Z,87.86
2017-05-02T22:51:51.624Z,88.30
2017-05-02T22:54:19.182Z,88.11
2017-05-02T22:56:46.783Z,88.59
2017-05-02T22:59:14.338Z,88.20
2017-05-02T23:01:42.187Z,87.62
2017-05-02T23:04:09.725Z,88.86
2017-05-02T23:06:37.264Z,88.36
2017-05-02T23:09:04.849Z,87.67
2017-05-02T23:11:32.377Z,88.55
2017-05-02T23:13:59.944Z,88.19
2017-05-02T23:16:27.460Z,87.49
2017-05-02T23:18:55.189Z,88.28
2017-05-02T23:21:22.710Z,87.30
2017-05-02T23:23:50.244Z,88.05
2017-05-02T23:26:17.900Z,87.95
2017-05-02T23:28:45.424Z,88.97
2017-05-02T23:31:13.093Z,89.46
2017-05-02T23:33:40.628Z,88.23
2017-05-02T23:36:08.143Z,88.00
2017-05-02T23:38:35.789Z,89.41
2017-05-02T23:41:03.421Z,88.29
2017-05-02T23:43:31.083Z,88.36
2017-05-02T23:45:58.624Z,88.16
2017-05-02T23:48:26.155Z,87.64
2017-05-02T23:50:53.741Z,88.46
2017-05-02T23:53:21.283Z,88.15
2017-05-02T23:55:48.850Z,88.58
2017-05-02T23:58:16.456Z,88.35
